createdAt,value
2023-05-01T00:00:59.300Z,1.08
2023-05-01T00:03:26.215Z,1.40
2023-05-01T00:06:00.144Z,1.30
2023-05-01T00:08:27.524Z,1.35
2023-05-01T00:10:54.323Z,1.40
2023-05-01T00:13:23.063Z,1.83
2023-05-01T00:15:50.723Z,1.15
2023-05-01T00:18:17.498Z,1.40
2023-05-01T00:20:44.092Z,1.30
2023-05-01T00:23:12.468Z,1.70
2023-05-01T00:25:39.525Z,1.58
2023-05-01T00:28:09.301Z,1.50
2023-05-01T00:30:36.652Z,1.60
2023-05-01T00:33:03.365Z,1.75
2023-05-01T00:35:30.779Z,1.20
2023-05-01T00:37:57.519Z,1.33
2023-05-01T00:40:24.612Z,1.20
2023-05-01T00:42:51.304Z,1.30
2023-05-01T00:45:18.179Z,0.88
2023-05-01T00:47:44.992Z,0.85
2023-05-01T00:50:11.973Z,1.17
2023-05-01T00:52:39.539Z,1.00
2023-05-01T00:57:33.629Z,1.05
2023-05-01T01:00:00.366Z,1.00
2023-05-01T01:02:27.267Z,1.40
2023-05-01T01:04:54.431Z,1.00
2023-05-01T01:07:40.104Z,1.00
2023-05-01T01:10:21.476Z,1.13
2023-05-01T01:13:07.327Z,1.00
2023-05-01T01:15:38.821Z,1.00
2023-05-01T01:18:12.288Z,1.10
2023-05-01T01:21:14.070Z,0.80
2023-05-01T01:24:13.804Z,0.90
2023-05-01T01:27:08.657Z,0.68
2023-05-01T01:29:54.017Z,1.27
2023-05-01T01:32:31.627Z,0.88
2023-05-01T01:35:12.773Z,0.68
2023-05-01T01:37:56.602Z,0.70
2023-05-01T01:40:28.144Z,1.25
2023-05-01T01:43:23.227Z,0.50
2023-05-01T01:46:17.721Z,1.20
2023-05-01T01:48:48.770Z,0.90
2023-05-01T01:51:19.334Z,0.45
2023-05-01T01:53:52.579Z,1.05
2023-05-01T01:56:22.039Z,0.52
2023-05-01T01:58:51.509Z,0.70
2023-05-01T02:01:19.941Z,0.30
2023-05-01T02:03:47.743Z,0.90
2023-05-01T02:06:17.148Z,0.90
2023-05-01T02:08:46.993Z,0.60
2023-05-01T02:11:15.766Z,0.80
2023-05-01T02:13:44.824Z,0.90
2023-05-01T02:16:13.275Z,0.90
2023-05-01T02:18:40.915Z,0.80
2023-05-01T02:21:08.264Z,0.80
2023-05-01T02:23:39.517Z,0.50
2023-05-01T02:26:12.319Z,0.68
2023-05-01T02:28:41.453Z,1.00
2023-05-01T02:31:08.911Z,0.60
2023-05-01T02:33:35.661Z,0.85
2023-05-01T02:36:02.620Z,0.60
2023-05-01T02:38:29.784Z,0.95
2023-05-01T02:40:58.277Z,0.90
2023-05-01T02:43:27.734Z,0.65
2023-05-01T02:45:55.549Z,1.23
2023-05-01T02:48:27.593Z,0.63
2023-05-01T02:50:55.819Z,1.00
2023-05-01T02:53:22.751Z,0.68
2023-05-01T02:55:53.761Z,1.15
2023-05-01T02:58:20.794Z,0.38
2023-05-01T03:00:49.999Z,1.00
2023-05-01T03:03:18.156Z,0.45
2023-05-01T03:05:44.800Z,1.15
2023-05-01T03:08:11.609Z,0.80
2023-05-01T03:10:43.213Z,0.82
2023-05-01T03:13:11.156Z,1.35
2023-05-01T03:15:38.724Z,1.35
2023-05-01T03:18:05.664Z,0.85
2023-05-01T03:20:32.509Z,0.90
2023-05-01T03:22:59.294Z,1.33
2023-05-01T03:25:26.027Z,0.80
2023-05-01T03:27:54.952Z,1.20
2023-05-01T03:30:22.696Z,0.70
2023-05-01T03:32:51.645Z,0.63
2023-05-01T03:35:23.426Z,1.35
2023-05-01T03:37:53.059Z,1.25
2023-05-01T03:40:37.884Z,1.25
2023-05-01T03:43:40.053Z,0.73
2023-05-01T03:46:14.429Z,1.25
2023-05-01T03:48:41.998Z,1.25
2023-05-01T03:51:09.007Z,1.02
2023-05-01T03:53:37.622Z,1.10
2023-05-01T03:56:06.417Z,1.35
2023-05-01T03:58:33.107Z,1.13
2023-05-01T04:01:00.871Z,1.17
2023-05-01T04:03:28.654Z,1.05
2023-05-01T04:05:56.255Z,1.00
2023-05-01T04:08:23.214Z,0.90
2023-05-01T04:10:49.923Z,0.65
2023-05-01T04:13:16.781Z,0.70
2023-05-01T04:15:46.874Z,1.42
2023-05-01T04:18:14.309Z,1.25
2023-05-01T04:20:40.997Z,1.40
2023-05-01T04:23:09.493Z,1.00
2023-05-01T04:25:37.112Z,1.42
2023-05-01T04:28:13.293Z,1.15
2023-05-01T04:30:40.098Z,1.20
2023-05-01T04:33:11.325Z,1.25
2023-05-01T04:35:39.567Z,1.33
2023-05-01T04:38:06.899Z,1.40
2023-05-01T04:40:34.204Z,1.27
2023-05-01T04:43:01.112Z,1.30
2023-05-01T04:45:28.452Z,1.27
2023-05-01T04:47:56.013Z,1.40
2023-05-01T04:50:22.784Z,1.02
2023-05-01T04:52:49.919Z,1.60
2023-05-01T04:55:16.713Z,1.35
2023-05-01T04:58:03.551Z,1.27
2023-05-01T05:00:31.317Z,1.48
2023-05-01T05:02:58.412Z,1.75
2023-05-01T05:07:52.982Z,1.30
2023-05-01T05:10:39.893Z,1.30
2023-05-01T05:13:27.763Z,1.60
2023-05-01T05:16:00.093Z,1.30
2023-05-01T05:18:27.464Z,1.50
2023-05-01T05:20:55.055Z,1.40
2023-05-01T05:23:21.683Z,1.15
2023-05-01T05:25:48.347Z,1.30
2023-05-01T05:28:14.944Z,1.50
2023-05-01T05:30:42.565Z,1.80
2023-05-01T05:33:13.443Z,1.50
2023-05-01T05:35:40.261Z,1.38
2023-05-01T05:38:06.924Z,1.70
2023-05-01T05:40:36.608Z,1.55
2023-05-01T05:43:03.399Z,1.10
2023-05-01T05:45:34.524Z,0.82
2023-05-01T05:48:01.813Z,1.67
2023-05-01T05:50:31.086Z,1.00
2023-05-01T05:52:58.379Z,1.60
2023-05-01T05:55:25.804Z,1.35
2023-05-01T05:58:01.536Z,1.08
2023-05-01T06:00:29.143Z,1.73
2023-05-01T06:02:57.964Z,1.60
2023-05-01T06:05:27.864Z,1.33
2023-05-01T06:07:54.950Z,1.50
2023-05-01T06:10:21.564Z,1.85
2023-05-01T06:12:53.885Z,1.20
2023-05-01T06:15:24.815Z,1.20
2023-05-01T06:17:54.057Z,1.88
2023-05-01T06:20:20.706Z,1.63
2023-05-01T06:22:49.860Z,1.67
2023-05-01T06:25:23.111Z,1.80
2023-05-01T06:27:50.762Z,1.83
2023-05-01T06:30:19.783Z,2.15
2023-05-01T06:32:46.964Z,1.60
2023-05-01T06:35:14.577Z,2.15
2023-05-01T06:37:41.239Z,2.42
2023-05-01T06:40:09.778Z,1.63
2023-05-01T06:42:38.686Z,2.17
2023-05-01T06:45:06.910Z,1.75
2023-05-01T06:47:33.957Z,2.13
2023-05-01T06:50:02.894Z,2.15
2023-05-01T06:52:33.347Z,2.10
2023-05-01T06:54:59.930Z,1.88
2023-05-01T06:57:26.961Z,1.77
2023-05-01T06:59:54.240Z,2.20
2023-05-01T07:02:21.301Z,1.88
2023-05-01T07:04:48.003Z,1.85
2023-05-01T07:07:14.770Z,2.30
2023-05-01T07:09:41.400Z,1.70
2023-05-01T07:12:08.729Z,1.90
2023-05-01T07:14:36.065Z,2.15
2023-05-01T07:17:03.372Z,2.25
2023-05-01T07:19:29.995Z,2.85
2023-05-01T07:21:56.769Z,1.98
2023-05-01T07:24:23.401Z,2.47
2023-05-01T07:26:50.059Z,2.20
2023-05-01T07:29:16.761Z,2.50
2023-05-01T07:31:44.208Z,1.95
2023-05-01T07:34:11.486Z,1.88
2023-05-01T07:36:38.619Z,2.42
2023-05-01T07:39:06.495Z,1.65
2023-05-01T07:41:33.298Z,2.10
2023-05-01T07:44:00.204Z,1.70
2023-05-01T07:46:27.598Z,1.50
2023-05-01T07:48:54.544Z,2.33
2023-05-01T07:51:21.649Z,2.00
2023-05-01T07:53:49.339Z,2.10
2023-05-01T07:58:44.003Z,2.45
2023-05-01T08:01:10.862Z,1.90
2023-05-01T08:03:37.989Z,1.40
2023-05-01T08:06:06.369Z,1.60
2023-05-01T08:08:33.063Z,1.83
2023-05-01T08:10:59.671Z,1.98
2023-05-01T08:13:26.307Z,2.00
2023-05-01T08:15:53.148Z,1.80
2023-05-01T08:18:21.065Z,1.77
2023-05-01T08:20:48.672Z,1.67
2023-05-01T08:23:16.584Z,1.70
2023-05-01T08:25:45.047Z,1.63
2023-05-01T08:28:11.713Z,2.20
2023-05-01T08:30:38.349Z,1.83
2023-05-01T08:33:05.086Z,2.05
2023-05-01T08:35:31.693Z,2.40
2023-05-01T08:37:58.320Z,2.03
2023-05-01T08:40:26.043Z,1.30
2023-05-01T08:42:52.872Z,2.00
2023-05-01T08:45:21.509Z,1.40
2023-05-01T08:47:49.330Z,1.65
2023-05-01T08:50:17.806Z,1.63
2023-05-01T08:52:46.146Z,1.77
2023-05-01T08:55:15.193Z,1.67
2023-05-01T08:57:46.790Z,1.83
2023-05-01T09:00:20.964Z,1.85
2023-05-01T09:02:50.003Z,1.67
2023-05-01T09:05:18.051Z,1.77
2023-05-01T09:07:46.604Z,2.03
2023-05-01T09:10:15.422Z,2.08
2023-05-01T09:12:46.093Z,1.98
2023-05-01T09:15:16.040Z,1.35
2023-05-01T09:17:42.854Z,2.22
2023-05-01T09:20:10.558Z,3.13
2023-05-01T09:25:04.357Z,1.85
2023-05-01T09:27:35.774Z,1.77
2023-05-01T09:30:03.389Z,1.83
2023-05-01T09:32:30.094Z,2.17
2023-05-01T09:35:13.526Z,2.05
2023-05-01T09:37:41.026Z,2.28
2023-05-01T09:40:14.246Z,2.65
2023-05-01T09:42:50.036Z,2.13
2023-05-01T09:45:18.939Z,2.42
2023-05-01T09:47:46.706Z,2.28
2023-05-01T09:50:34.644Z,2.60
2023-05-01T09:53:02.711Z,2.38
2023-05-01T09:55:29.333Z,1.85
2023-05-01T09:57:58.787Z,2.63
2023-05-01T10:00:26.401Z,2.83
2023-05-01T10:02:53.387Z,2.40
2023-05-01T10:05:20.318Z,2.35
2023-05-01T10:08:02.201Z,2.78
2023-05-01T10:10:29.402Z,2.25
2023-05-01T10:12:56.111Z,2.10
2023-05-01T10:15:26.732Z,1.98
2023-05-01T10:17:54.703Z,2.95
2023-05-01T10:20:29.284Z,2.63
2023-05-01T10:22:56.478Z,2.35
2023-05-01T10:25:27.495Z,2.00
2023-05-01T10:28:06.703Z,2.35
2023-05-01T10:30:38.093Z,2.30
2023-05-01T10:33:05.428Z,2.55
2023-05-01T10:35:38.402Z,3.00
2023-05-01T10:38:07.744Z,2.28
2023-05-01T10:40:42.470Z,1.90
2023-05-01T10:43:31.086Z,2.47
2023-05-01T10:46:10.090Z,2.47
2023-05-01T10:48:40.101Z,2.40
2023-05-01T10:51:11.200Z,3.25
2023-05-01T10:53:44.726Z,2.38
2023-05-01T10:56:30.207Z,3.00
2023-05-01T10:59:04.856Z,2.15
2023-05-01T11:01:32.976Z,2.90
2023-05-01T11:04:01.920Z,3.05
2023-05-01T11:06:29.299Z,2.95
2023-05-01T11:08:57.131Z,2.38
2023-05-01T11:14:06.612Z,2.65
2023-05-01T11:16:42.372Z,2.75
2023-05-01T11:19:46.171Z,2.75
2023-05-01T11:22:13.638Z,2.55
2023-05-01T11:24:41.392Z,2.42
2023-05-01T11:27:08.937Z,2.70
2023-05-01T11:29:37.513Z,2.22
2023-05-01T11:32:04.427Z,2.50
2023-05-01T11:34:38.971Z,2.35
2023-05-01T11:37:05.700Z,1.70
2023-05-01T11:39:32.429Z,2.58
2023-05-01T11:42:09.835Z,1.88
2023-05-01T11:44:37.418Z,1.92
2023-05-01T11:47:06.659Z,2.03
2023-05-01T11:49:33.451Z,2.30
2023-05-01T11:52:00.200Z,2.55
2023-05-01T11:54:27.037Z,2.10
2023-05-01T11:57:03.742Z,2.00
2023-05-01T11:59:30.699Z,1.60
2023-05-01T12:01:58.239Z,1.83
2023-05-01T12:04:31.577Z,2.15
2023-05-01T12:06:59.298Z,2.08
2023-05-01T12:09:27.383Z,2.47
2023-05-01T12:11:54.527Z,2.28
2023-05-01T12:14:22.334Z,2.25
2023-05-01T12:16:49.555Z,3.08
2023-05-01T12:19:16.555Z,2.28
2023-05-01T12:21:43.208Z,1.85
2023-05-01T12:24:10.513Z,1.95
2023-05-01T12:26:37.868Z,2.10
2023-05-01T12:29:06.828Z,2.15
2023-05-01T12:31:34.048Z,2.00
2023-05-01T12:34:07.758Z,2.08
2023-05-01T12:36:36.685Z,1.80
2023-05-01T12:39:12.549Z,1.27
2023-05-01T12:41:46.093Z,3.10
2023-05-01T12:44:23.137Z,2.15
2023-05-01T12:47:01.147Z,1.20
2023-05-01T12:49:29.701Z,1.33
2023-05-01T12:51:58.218Z,1.80
2023-05-01T12:54:37.746Z,2.00
2023-05-01T12:57:14.815Z,1.60
2023-05-01T12:59:46.224Z,1.67
2023-05-01T13:02:15.789Z,1.67
2023-05-01T13:04:49.862Z,2.13
2023-05-01T13:09:55.819Z,2.15
2023-05-01T13:12:23.411Z,1.50
2023-05-01T13:14:50.875Z,1.25
2023-05-01T13:17:31.599Z,1.67
2023-05-01T13:20:04.055Z,1.40
2023-05-01T13:22:30.664Z,1.52
2023-05-01T13:24:57.528Z,1.70
2023-05-01T13:27:24.514Z,1.60
2023-05-01T13:29:59.453Z,1.10
2023-05-01T13:32:27.154Z,1.50
2023-05-01T13:34:58.208Z,1.90
2023-05-01T13:37:24.810Z,1.40
2023-05-01T13:39:58.257Z,1.15
2023-05-01T13:42:25.209Z,1.58
2023-05-01T13:44:53.808Z,1.73
2023-05-01T13:47:23.209Z,1.38
2023-05-01T13:49:49.907Z,1.00
2023-05-01T13:52:18.954Z,2.08
2023-05-01T13:54:47.041Z,1.90
2023-05-01T13:57:14.575Z,1.15
2023-05-01T13:59:43.624Z,1.90
2023-05-01T14:02:22.489Z,1.98
2023-05-01T14:04:49.364Z,1.42
2023-05-01T14:07:22.618Z,1.52
2023-05-01T14:09:59.715Z,1.75
2023-05-01T14:12:31.298Z,1.67
2023-05-01T14:15:00.040Z,1.35
2023-05-01T14:17:31.707Z,1.75
2023-05-01T14:19:58.528Z,1.50
2023-05-01T14:22:29.899Z,1.52
2023-05-01T14:24:58.689Z,1.45
2023-05-01T14:27:25.726Z,1.70
2023-05-01T14:29:52.360Z,0.85
2023-05-01T14:32:19.012Z,1.10
2023-05-01T14:34:46.135Z,1.40
2023-05-01T14:37:15.091Z,1.40
2023-05-01T14:39:41.968Z,1.33
2023-05-01T14:42:10.424Z,1.40
2023-05-01T14:44:42.213Z,1.35
2023-05-01T14:47:09.521Z,1.50
2023-05-01T14:49:36.072Z,1.85
2023-05-01T14:52:02.859Z,1.52
2023-05-01T14:54:31.585Z,1.30
2023-05-01T14:56:58.147Z,1.85
2023-05-01T14:59:24.879Z,1.30
2023-05-01T15:01:51.567Z,1.55
2023-05-01T15:04:18.998Z,1.52
2023-05-01T15:06:45.739Z,1.27
2023-05-01T15:09:12.794Z,1.70
2023-05-01T15:11:39.365Z,1.13
2023-05-01T15:14:06.516Z,1.40
2023-05-01T15:16:33.202Z,1.27
2023-05-01T15:18:59.887Z,0.95
2023-05-01T15:21:26.484Z,0.93
2023-05-01T15:23:53.117Z,1.75
2023-05-01T15:26:19.805Z,0.93
2023-05-01T15:28:46.498Z,1.25
2023-05-01T15:31:13.132Z,1.30
2023-05-01T15:33:39.762Z,1.60
2023-05-01T15:36:06.681Z,1.05
2023-05-01T15:38:33.334Z,1.23
2023-05-01T15:40:59.918Z,0.80
2023-05-01T15:43:26.553Z,1.10
2023-05-01T15:45:57.517Z,1.80
2023-05-01T15:48:24.404Z,1.08
2023-05-01T15:50:51.060Z,1.25
2023-05-01T15:53:17.723Z,1.60
2023-05-01T15:55:44.263Z,1.00
2023-05-01T15:58:10.969Z,1.20
2023-05-01T16:00:39.759Z,1.05
2023-05-01T16:03:08.382Z,0.90
2023-05-01T16:05:36.954Z,1.42
2023-05-01T16:08:06.554Z,1.38
2023-05-01T16:10:40.605Z,1.23
2023-05-01T16:13:07.635Z,1.20
2023-05-01T16:15:36.162Z,0.90
2023-05-01T16:18:06.526Z,0.52
2023-05-01T16:20:35.944Z,0.60
2023-05-01T16:23:02.984Z,0.73
2023-05-01T16:25:29.621Z,0.77
2023-05-01T16:27:56.197Z,0.68
2023-05-01T16:30:27.568Z,0.52
2023-05-01T16:32:54.243Z,0.75
2023-05-01T16:35:27.252Z,0.38
2023-05-01T16:37:54.795Z,0.73
2023-05-01T16:40:22.736Z,0.70
2023-05-01T16:42:54.026Z,0.82
2023-05-01T16:45:21.189Z,1.00
2023-05-01T16:47:47.893Z,1.08
2023-05-01T16:50:15.105Z,0.82
2023-05-01T16:52:41.842Z,0.85
2023-05-01T16:55:11.781Z,0.68
2023-05-01T16:57:38.670Z,0.68
2023-05-01T17:00:06.896Z,1.00
2023-05-01T17:02:33.806Z,0.80
2023-05-01T17:05:01.878Z,0.85
2023-05-01T17:07:28.577Z,0.70
2023-05-01T17:09:55.179Z,0.98
2023-05-01T17:12:21.912Z,1.00
2023-05-01T17:14:48.481Z,0.70
2023-05-01T17:17:17.527Z,0.47
2023-05-01T17:19:44.213Z,0.65
2023-05-01T17:22:11.003Z,0.50
2023-05-01T17:24:37.698Z,0.93
2023-05-01T17:27:04.369Z,0.60
2023-05-01T17:29:31.018Z,0.95
2023-05-01T17:31:57.763Z,0.68
2023-05-01T17:34:24.497Z,0.60
2023-05-01T17:36:51.128Z,1.60
2023-05-01T17:39:21.750Z,1.13
2023-05-01T17:41:49.388Z,1.10
2023-05-01T17:44:16.185Z,1.13
2023-05-01T17:46:42.835Z,0.95
2023-05-01T17:49:09.448Z,0.93
2023-05-01T17:51:36.006Z,0.77
2023-05-01T17:54:02.738Z,1.20
2023-05-01T17:56:29.383Z,1.27
2023-05-01T17:58:56.616Z,1.30
2023-05-01T18:01:23.259Z,1.60
2023-05-01T18:03:50.026Z,0.80
2023-05-01T18:06:16.869Z,0.90
2023-05-01T18:08:43.634Z,0.93
2023-05-01T18:11:10.318Z,1.00
2023-05-01T18:13:40.654Z,1.30
2023-05-01T18:16:07.459Z,1.65
2023-05-01T18:18:34.037Z,1.95
2023-05-01T18:21:00.629Z,1.42
2023-05-01T18:23:27.249Z,1.50
2023-05-01T18:25:55.994Z,0.90
2023-05-01T18:28:22.726Z,1.30
2023-05-01T18:30:49.376Z,0.90
2023-05-01T18:33:16.139Z,1.67
2023-05-01T18:35:42.900Z,1.70
2023-05-01T18:38:10.431Z,1.40
2023-05-01T18:40:37.880Z,1.23
2023-05-01T18:43:04.750Z,1.70
2023-05-01T18:45:31.442Z,1.30
2023-05-01T18:48:00.626Z,1.33
2023-05-01T18:50:27.577Z,1.50
2023-05-01T18:52:54.241Z,1.60
2023-05-01T18:55:20.968Z,1.98
2023-05-01T18:57:48.437Z,1.88
2023-05-01T19:00:17.651Z,1.77
2023-05-01T19:02:51.234Z,1.85
2023-05-01T19:05:18.573Z,2.40
2023-05-01T19:07:45.361Z,2.17
2023-05-01T19:10:12.048Z,1.85
2023-05-01T19:12:39.443Z,2.40
2023-05-01T19:15:06.684Z,1.85
2023-05-01T19:17:33.941Z,2.05
2023-05-01T19:20:01.043Z,1.92
2023-05-01T19:22:27.927Z,1.83
2023-05-01T19:24:54.758Z,2.00
2023-05-01T19:27:21.412Z,1.80
2023-05-01T19:29:48.132Z,1.83
2023-05-01T19:32:14.864Z,2.20
2023-05-01T19:34:41.719Z,1.63
2023-05-01T19:37:08.376Z,2.30
2023-05-01T19:39:35.068Z,2.55
2023-05-01T19:42:02.227Z,1.70
2023-05-01T19:44:29.093Z,1.70
2023-05-01T19:46:55.729Z,1.98
2023-05-01T19:49:25.003Z,2.13
2023-05-01T19:51:53.799Z,1.90
2023-05-01T19:54:22.714Z,2.47
2023-05-01T19:56:52.757Z,3.00
2023-05-01T19:59:19.847Z,2.38
2023-05-01T20:01:47.061Z,1.90
2023-05-01T20:04:14.001Z,2.42
2023-05-01T20:06:40.714Z,1.98
2023-05-01T20:09:07.617Z,2.45
2023-05-01T20:11:34.584Z,2.67
2023-05-01T20:14:03.536Z,2.42
2023-05-01T20:16:31.123Z,2.25
2023-05-01T20:18:58.484Z,2.55
2023-05-01T20:21:25.821Z,2.35
2023-05-01T20:23:54.428Z,2.60
2023-05-01T20:26:21.198Z,2.13
2023-05-01T20:28:48.905Z,2.47
2023-05-01T20:31:15.873Z,2.17
2023-05-01T20:33:42.779Z,2.80
2023-05-01T20:36:09.656Z,2.53
2023-05-01T20:38:43.007Z,2.65
2023-05-01T20:41:10.050Z,2.38
2023-05-01T20:43:36.861Z,2.33
2023-05-01T20:46:03.461Z,3.45
2023-05-01T20:48:30.195Z,3.28
2023-05-01T20:50:56.924Z,2.55
2023-05-01T20:53:23.562Z,3.05
2023-05-01T20:55:50.440Z,1.95
2023-05-01T20:58:17.026Z,3.65
2023-05-01T21:00:43.782Z,3.13
2023-05-01T21:03:10.624Z,3.03
2023-05-01T21:05:37.230Z,2.50
2023-05-01T21:08:03.821Z,4.03
2023-05-01T21:10:30.473Z,3.63
2023-05-01T21:12:57.823Z,3.58
2023-05-01T21:15:24.765Z,2.63
2023-05-01T21:17:51.419Z,3.28
2023-05-01T21:20:30.601Z,3.15
2023-05-01T21:22:57.360Z,3.53
2023-05-01T21:25:26.945Z,2.97
2023-05-01T21:27:54.344Z,3.70
2023-05-01T21:30:33.349Z,3.35
2023-05-01T21:33:01.532Z,4.18
2023-05-01T21:35:30.145Z,3.78
2023-05-01T21:37:57.794Z,3.70
2023-05-01T21:40:25.046Z,4.47
2023-05-01T21:42:54.239Z,4.65
2023-05-01T21:45:21.321Z,4.38
2023-05-01T21:47:53.441Z,4.90
2023-05-01T21:50:21.451Z,3.70
2023-05-01T21:52:49.896Z,3.55
2023-05-01T21:55:21.860Z,4.30
2023-05-01T21:57:53.135Z,5.03
2023-05-01T22:00:21.136Z,4.10
2023-05-01T22:02:49.588Z,5.03
2023-05-01T22:05:19.921Z,4.60
2023-05-01T22:07:47.292Z,5.35
2023-05-01T22:10:17.878Z,4.57
2023-05-01T22:12:47.671Z,5.40
2023-05-01T22:15:15.707Z,4.75
2023-05-01T22:17:42.895Z,4.57
2023-05-01T22:20:10.099Z,4.35
2023-05-01T22:22:38.147Z,4.15
2023-05-01T22:25:05.496Z,5.70
2023-05-01T22:27:32.237Z,5.47
2023-05-01T22:29:59.521Z,5.65
2023-05-01T22:32:26.890Z,5.78
2023-05-01T22:34:53.625Z,4.25
2023-05-01T22:37:20.282Z,5.13
2023-05-01T22:39:46.901Z,5.22
2023-05-01T22:42:13.642Z,4.43
2023-05-01T22:44:40.875Z,3.75
2023-05-01T22:47:07.492Z,5.00
2023-05-01T22:49:34.154Z,4.82
2023-05-01T22:52:00.797Z,3.35
2023-05-01T22:54:27.464Z,4.35
2023-05-01T22:56:54.361Z,5.65
2023-05-01T22:59:21.839Z,5.55
2023-05-01T23:01:48.694Z,3.90
2023-05-01T23:04:15.700Z,4.63
2023-05-01T23:06:43.195Z,4.05
2023-05-01T23:09:10.012Z,4.30
2023-05-01T23:11:36.652Z,3.78
2023-05-01T23:14:03.577Z,4.70
2023-05-01T23:16:36.495Z,4.35
2023-05-01T23:19:03.822Z,4.82
2023-05-01T23:21:31.099Z,2.58
2023-05-01T23:23:57.788Z,4.15
2023-05-01T23:26:26.104Z,3.60
2023-05-01T23:28:53.514Z,3.58
2023-05-01T23:31:27.683Z,3.63
2023-05-01T23:33:55.374Z,3.67
2023-05-01T23:36:22.286Z,3.00
2023-05-01T23:38:49.628Z,3.05
2023-05-01T23:41:16.476Z,2.95
2023-05-01T23:43:46.548Z,3.80
2023-05-01T23:46:13.877Z,2.92
2023-05-01T23:48:41.365Z,3.22
2023-05-01T23:51:08.090Z,3.08
2023-05-01T23:53:34.857Z,2.58
2023-05-01T23:56:02.186Z,3.95
2023-05-01T23:58:28.739Z,3.03
